createdAt,value
2023-02-12T00:00:03.827Z,25.00
2023-02-12T00:02:30.667Z,23.55
2023-02-12T00:04:57.306Z,24.60
2023-02-12T00:07:23.919Z,24.30
2023-02-12T00:09:50.496Z,22.45
2023-02-12T00:12:17.234Z,22.95
2023-02-12T00:14:43.792Z,23.88
2023-02-12T00:17:10.385Z,24.33
2023-02-12T00:19:37.004Z,23.60
2023-02-12T00:22:03.565Z,24.08
2023-02-12T00:24:30.228Z,24.83
2023-02-12T00:26:56.777Z,20.75
2023-02-12T00:29:23.383Z,24.55
2023-02-12T00:31:49.975Z,23.70
2023-02-12T00:34:16.597Z,25.10
2023-02-12T00:36:43.138Z,23.63
2023-02-12T00:39:10.509Z,24.95
2023-02-12T00:41:37.111Z,24.33
2023-02-12T00:44:03.862Z,24.08
2023-02-12T00:46:30.514Z,24.55
2023-02-12T00:48:57.099Z,25.77
2023-02-12T00:51:23.742Z,22.85
2023-02-12T00:53:50.281Z,24.08
2023-02-12T00:56:16.954Z,22.88
2023-02-12T00:58:43.590Z,23.73
2023-02-12T01:01:10.418Z,25.33
2023-02-12T01:03:37.264Z,23.33
2023-02-12T01:06:03.991Z,25.95
2023-02-12T01:08:30.610Z,25.95
2023-02-12T01:11:02.372Z,24.48
2023-02-12T01:13:30.661Z,26.08
2023-02-12T01:16:14.864Z,25.33
2023-02-12T01:18:41.717Z,23.93
2023-02-12T01:21:13.668Z,24.25
2023-02-12T01:23:41.688Z,24.85
2023-02-12T01:26:10.905Z,23.75
2023-02-12T01:28:43.733Z,24.55
2023-02-12T01:31:16.758Z,24.20
2023-02-12T01:33:43.703Z,25.27
2023-02-12T01:36:11.386Z,25.40
2023-02-12T01:38:38.162Z,23.65
2023-02-12T01:41:16.878Z,25.95
2023-02-12T01:43:44.787Z,23.55
2023-02-12T01:46:13.766Z,25.13
2023-02-12T01:48:45.253Z,23.27
2023-02-12T01:51:17.790Z,24.10
2023-02-12T01:53:49.419Z,25.17
2023-02-12T01:56:17.250Z,25.20
2023-02-12T01:58:47.257Z,25.95
2023-02-12T02:01:19.682Z,24.35
2023-02-12T02:03:50.125Z,24.95
2023-02-12T02:06:21.290Z,25.38
2023-02-12T02:08:49.024Z,24.58
2023-02-12T02:11:34.143Z,23.92
2023-02-12T02:17:13.816Z,23.92
2023-02-12T02:20:13.872Z,23.83
2023-02-12T02:22:54.560Z,24.60
2023-02-12T02:25:21.064Z,24.35
2023-02-12T02:27:58.227Z,24.13
2023-02-12T02:30:53.762Z,24.80
2023-02-12T02:35:57.474Z,23.73
2023-02-12T02:38:34.260Z,24.92
2023-02-12T02:41:10.720Z,24.23
2023-02-12T02:43:52.003Z,25.15
2023-02-12T02:46:30.964Z,24.92
2023-02-12T02:49:02.175Z,25.30
2023-02-12T02:51:52.511Z,25.42
2023-02-12T02:54:38.484Z,24.58
2023-02-12T02:57:13.946Z,24.83
2023-02-12T02:59:47.008Z,25.10
2023-02-12T03:02:37.187Z,25.85
2023-02-12T03:05:30.420Z,26.80
2023-02-12T03:08:08.616Z,24.83
2023-02-12T03:10:41.053Z,25.45
2023-02-12T03:13:11.892Z,24.80
2023-02-12T03:16:07.953Z,25.55
2023-02-12T03:18:41.781Z,26.17
2023-02-12T03:21:21.684Z,25.90
2023-02-12T03:23:55.222Z,27.52
2023-02-12T03:26:27.352Z,25.48
2023-02-12T03:28:54.083Z,25.58
2023-02-12T03:31:46.652Z,26.60
2023-02-12T03:34:40.952Z,26.25
2023-02-12T03:37:12.886Z,25.77
2023-02-12T03:39:49.704Z,25.10
2023-02-12T03:42:26.845Z,25.50
2023-02-12T03:45:01.554Z,25.00
2023-02-12T03:50:15.180Z,25.42
2023-02-12T03:52:43.436Z,26.42
2023-02-12T03:55:13.163Z,25.25
2023-02-12T03:57:44.589Z,24.90
2023-02-12T04:00:18.360Z,25.52
2023-02-12T04:02:45.412Z,26.45
2023-02-12T04:05:21.886Z,25.70
2023-02-12T04:07:50.334Z,25.15
2023-02-12T04:10:17.980Z,25.75
2023-02-12T04:12:54.548Z,24.50
2023-02-12T04:15:21.040Z,25.23
2023-02-12T04:17:56.867Z,25.60
2023-02-12T04:20:51.627Z,24.48
2023-02-12T04:23:39.773Z,26.50
2023-02-12T04:26:39.785Z,24.27
2023-02-12T04:29:24.824Z,22.67
2023-02-12T04:32:17.549Z,25.58
2023-02-12T04:35:19.317Z,23.92
2023-02-12T04:37:51.280Z,22.80
2023-02-12T04:40:20.776Z,23.48
2023-02-12T04:42:49.851Z,22.92
2023-02-12T04:45:22.479Z,23.58
2023-02-12T04:47:49.062Z,23.38
2023-02-12T04:50:15.711Z,23.27
2023-02-12T04:52:42.292Z,23.10
2023-02-12T04:55:09.200Z,25.00
2023-02-12T04:57:35.818Z,24.65
2023-02-12T05:00:05.742Z,23.98
2023-02-12T05:02:34.177Z,24.30
2023-02-12T05:05:00.840Z,23.60
2023-02-12T05:07:27.507Z,25.38
2023-02-12T05:09:54.635Z,23.88
2023-02-12T05:12:21.256Z,24.70
2023-02-12T05:14:47.821Z,23.80
2023-02-12T05:17:14.423Z,24.48
2023-02-12T05:19:40.992Z,24.02
2023-02-12T05:22:07.600Z,24.95
2023-02-12T05:24:34.185Z,23.83
2023-02-12T05:27:00.839Z,24.90
2023-02-12T05:29:27.401Z,24.85
2023-02-12T05:31:54.047Z,23.42
2023-02-12T05:34:20.694Z,24.65
2023-02-12T05:36:47.221Z,23.70
2023-02-12T05:39:13.921Z,24.75
2023-02-12T05:41:40.492Z,23.02
2023-02-12T05:44:07.113Z,24.13
2023-02-12T05:46:34.413Z,24.70
2023-02-12T05:49:01.053Z,23.92
2023-02-12T05:51:28.201Z,23.77
2023-02-12T05:54:03.768Z,23.30
2023-02-12T05:56:32.568Z,24.25
2023-02-12T05:59:07.605Z,25.35
2023-02-12T06:01:36.807Z,26.63
2023-02-12T06:04:06.679Z,26.95
2023-02-12T06:06:34.048Z,26.20
2023-02-12T06:09:01.475Z,27.83
2023-02-12T06:11:28.979Z,27.02
2023-02-12T06:13:55.519Z,28.58
2023-02-12T06:16:31.206Z,27.23
2023-02-12T06:18:58.426Z,28.60
2023-02-12T06:21:26.752Z,28.98
2023-02-12T06:23:53.868Z,27.05
2023-02-12T06:26:21.258Z,30.30
2023-02-12T06:28:47.911Z,31.90
2023-02-12T06:31:19.969Z,30.95
2023-02-12T06:33:46.816Z,32.78
2023-02-12T06:36:15.600Z,30.33
2023-02-12T06:38:42.246Z,33.58
2023-02-12T06:41:09.093Z,34.60
2023-02-12T06:43:35.868Z,36.28
2023-02-12T06:46:04.056Z,37.58
2023-02-12T06:48:31.123Z,38.70
2023-02-12T06:51:05.034Z,41.10
2023-02-12T06:53:32.920Z,41.17
2023-02-12T06:56:01.821Z,46.00
2023-02-12T06:58:28.449Z,47.85
2023-02-12T07:00:55.067Z,50.45
2023-02-12T07:03:21.689Z,54.47
2023-02-12T07:05:48.416Z,60.55
2023-02-12T07:08:15.535Z,61.22
2023-02-12T07:10:42.204Z,62.95
2023-02-12T07:13:08.740Z,65.15
2023-02-12T07:15:39.638Z,71.90
2023-02-12T07:18:06.248Z,75.78
2023-02-12T07:20:32.852Z,77.82
2023-02-12T07:22:59.391Z,91.32
2023-02-12T07:25:25.944Z,93.57
2023-02-12T07:27:52.605Z,89.90
2023-02-12T07:30:19.741Z,82.80
2023-02-12T07:32:46.289Z,74.38
2023-02-12T07:35:12.919Z,68.47
2023-02-12T07:37:39.489Z,62.78
2023-02-12T07:40:06.932Z,61.38
2023-02-12T07:42:33.498Z,58.65
2023-02-12T07:45:00.100Z,54.22
2023-02-12T07:47:26.651Z,53.38
2023-02-12T07:49:53.177Z,44.40
2023-02-12T07:52:19.729Z,46.25
2023-02-12T07:54:47.461Z,44.33
2023-02-12T07:57:14.060Z,40.92
2023-02-12T07:59:40.590Z,39.47
2023-02-12T08:02:07.156Z,37.00
2023-02-12T08:04:33.793Z,34.67
2023-02-12T08:07:00.432Z,32.92
2023-02-12T08:09:33.608Z,32.15
2023-02-12T08:12:00.311Z,30.75
2023-02-12T08:14:27.568Z,28.33
2023-02-12T08:16:54.196Z,26.52
2023-02-12T08:19:25.788Z,27.90
2023-02-12T08:21:54.599Z,28.23
2023-02-12T08:24:24.562Z,31.33
2023-02-12T08:26:52.215Z,28.55
2023-02-12T08:29:21.807Z,26.98
2023-02-12T08:31:50.019Z,26.40
2023-02-12T08:34:19.130Z,24.80
2023-02-12T08:36:46.976Z,26.85
2023-02-12T08:39:16.179Z,25.98
2023-02-12T08:41:43.412Z,25.60
2023-02-12T08:44:10.734Z,24.60
2023-02-12T08:46:44.500Z,27.63
2023-02-12T08:49:14.088Z,25.77
2023-02-12T08:51:43.843Z,25.63
2023-02-12T08:54:13.855Z,24.95
2023-02-12T08:56:41.100Z,24.42
2023-02-12T08:59:08.693Z,26.02
2023-02-12T09:01:41.835Z,27.05
2023-02-12T09:04:15.154Z,27.00
2023-02-12T09:06:41.739Z,28.20
2023-02-12T09:09:08.372Z,26.67
2023-02-12T09:11:35.560Z,25.35
2023-02-12T09:14:07.847Z,26.55
2023-02-12T09:16:36.672Z,27.00
2023-02-12T09:19:04.434Z,26.98
2023-02-12T09:21:31.129Z,27.50
2023-02-12T09:23:57.980Z,27.25
2023-02-12T09:26:28.331Z,26.05
2023-02-12T09:28:55.391Z,24.77
2023-02-12T09:31:30.071Z,26.90
2023-02-12T09:36:27.795Z,25.92
2023-02-12T09:38:54.448Z,34.38
2023-02-12T09:41:30.006Z,38.85
2023-02-12T09:44:16.809Z,38.92
2023-02-12T09:46:58.892Z,36.05
2023-02-12T09:49:47.303Z,35.13
2023-02-12T09:52:17.974Z,31.17
2023-02-12T09:54:45.124Z,29.38
2023-02-12T09:57:31.269Z,30.10
2023-02-12T10:00:19.079Z,30.25
2023-02-12T10:02:53.628Z,29.48
2023-02-12T10:05:38.701Z,29.55
2023-02-12T10:08:10.700Z,26.13
2023-02-12T10:10:54.611Z,26.88
2023-02-12T10:14:03.142Z,25.63
2023-02-12T10:16:51.067Z,24.08
2023-02-12T10:19:37.827Z,25.33
2023-02-12T10:22:51.377Z,25.10
2023-02-12T10:25:47.571Z,23.48
2023-02-12T10:28:39.662Z,26.27
2023-02-12T10:31:17.681Z,23.00
2023-02-12T10:33:48.944Z,22.58
2023-02-12T10:36:18.478Z,22.63
2023-02-12T10:38:51.564Z,19.42
2023-02-12T10:41:18.264Z,19.58
2023-02-12T10:43:44.969Z,18.73
2023-02-12T10:46:15.692Z,15.80
2023-02-12T10:48:45.832Z,15.27
2023-02-12T10:51:23.216Z,14.45
2023-02-12T10:53:49.822Z,14.65
2023-02-12T10:56:24.639Z,13.20
2023-02-12T10:58:55.713Z,13.98
2023-02-12T11:01:35.458Z,13.85
2023-02-12T11:04:23.705Z,13.45
2023-02-12T11:07:03.677Z,13.68
2023-02-12T11:09:45.907Z,14.40
2023-02-12T11:12:21.537Z,14.00
2023-02-12T11:14:50.705Z,13.60
2023-02-12T11:17:26.906Z,12.57
2023-02-12T11:20:10.203Z,13.68
2023-02-12T11:22:37.267Z,14.13
2023-02-12T11:25:16.234Z,14.27
2023-02-12T11:27:43.293Z,14.20
2023-02-12T11:30:21.425Z,14.02
2023-02-12T11:32:49.525Z,14.95
2023-02-12T11:35:33.775Z,16.10
2023-02-12T11:38:02.581Z,14.35
2023-02-12T11:40:33.927Z,15.10
2023-02-12T11:43:06.888Z,14.50
2023-02-12T11:45:44.662Z,14.18
2023-02-12T11:48:19.399Z,14.57
2023-02-12T11:50:48.931Z,14.60
2023-02-12T11:53:30.009Z,15.00
2023-02-12T11:56:03.164Z,15.68
2023-02-12T11:58:30.623Z,14.98
2023-02-12T12:01:22.072Z,15.43
2023-02-12T12:03:51.314Z,15.13
2023-02-12T12:06:40.158Z,18.20
2023-02-12T12:09:12.744Z,16.30
2023-02-12T12:12:02.603Z,16.60
2023-02-12T12:14:32.085Z,16.60
2023-02-12T12:17:32.760Z,17.33
2023-02-12T12:20:06.869Z,17.73
2023-02-12T12:22:33.473Z,18.17
2023-02-12T12:25:24.977Z,18.02
2023-02-12T12:28:29.195Z,18.00
2023-02-12T12:31:03.770Z,18.85
2023-02-12T12:33:36.282Z,18.52
2023-02-12T12:36:14.755Z,18.95
2023-02-12T12:38:59.656Z,18.83
2023-02-12T12:41:50.665Z,19.30
2023-02-12T12:44:52.757Z,19.38
2023-02-12T12:47:59.307Z,19.15
2023-02-12T12:50:28.508Z,19.85
2023-02-12T12:53:07.123Z,20.88
2023-02-12T12:55:57.198Z,21.17
2023-02-12T12:58:29.627Z,21.75
2023-02-12T13:01:23.305Z,21.63
2023-02-12T13:04:11.028Z,21.80
2023-02-12T13:06:37.553Z,22.77
2023-02-12T13:09:43.413Z,23.77
2023-02-12T13:12:28.689Z,27.50
2023-02-12T13:15:09.349Z,28.48
2023-02-12T13:18:02.232Z,29.35
2023-02-12T13:20:42.719Z,29.40
2023-02-12T13:23:16.563Z,28.63
2023-02-12T13:26:13.767Z,30.90
2023-02-12T13:29:12.892Z,29.95
2023-02-12T13:31:47.763Z,31.45
2023-02-12T13:34:17.789Z,30.95
2023-02-12T13:36:47.601Z,33.03
2023-02-12T13:39:20.203Z,33.25
2023-02-12T13:41:57.458Z,32.75
2023-02-12T13:44:44.201Z,31.90
2023-02-12T13:47:13.786Z,32.30
2023-02-12T13:50:03.035Z,32.92
2023-02-12T13:52:46.312Z,37.05
2023-02-12T13:55:31.245Z,39.67
2023-02-12T14:00:51.948Z,39.13
2023-02-12T14:03:25.432Z,39.72
2023-02-12T14:06:20.475Z,36.42
2023-02-12T14:08:51.225Z,36.65
2023-02-12T14:11:21.788Z,38.92
2023-02-12T14:13:58.641Z,35.28
2023-02-12T14:16:31.113Z,36.53
2023-02-12T14:19:34.945Z,35.47
2023-02-12T14:22:09.680Z,36.15
2023-02-12T14:24:36.167Z,34.72
2023-02-12T14:27:17.181Z,36.40
2023-02-12T14:30:06.795Z,36.28
2023-02-12T14:32:58.210Z,35.78
2023-02-12T14:35:30.700Z,35.03
2023-02-12T14:38:04.157Z,37.22
2023-02-12T14:40:33.479Z,38.45
2023-02-12T14:43:02.016Z,37.88
2023-02-12T14:45:34.679Z,37.55
2023-02-12T14:48:02.897Z,37.03
2023-02-12T14:50:37.326Z,37.60
2023-02-12T14:53:34.597Z,37.17
2023-02-12T14:56:03.605Z,36.40
2023-02-12T14:58:32.134Z,37.67
2023-02-12T15:01:01.456Z,37.92
2023-02-12T15:03:40.393Z,34.85
2023-02-12T15:06:06.939Z,35.45
2023-02-12T15:09:03.002Z,34.78
2023-02-12T15:11:55.458Z,34.58
2023-02-12T15:14:30.891Z,33.72
2023-02-12T15:17:00.240Z,34.67
2023-02-12T15:19:41.928Z,33.47
2023-02-12T15:22:33.086Z,32.40
2023-02-12T15:25:30.814Z,34.13
2023-02-12T15:28:00.611Z,34.65
2023-02-12T15:30:31.965Z,34.08
2023-02-12T15:33:01.507Z,33.75
2023-02-12T15:35:37.131Z,33.72
2023-02-12T15:38:07.784Z,32.17
2023-02-12T15:40:34.935Z,34.55
2023-02-12T15:43:04.702Z,34.88
2023-02-12T15:45:36.170Z,35.75
2023-02-12T15:48:08.951Z,33.03
2023-02-12T15:50:45.739Z,35.47
2023-02-12T15:53:13.780Z,35.22
2023-02-12T15:55:43.974Z,33.85
2023-02-12T15:58:29.295Z,35.33
2023-02-12T16:01:01.407Z,32.17
2023-02-12T16:03:34.060Z,32.55
2023-02-12T16:06:13.701Z,33.22
2023-02-12T16:08:43.560Z,32.92
2023-02-12T16:11:16.687Z,33.40
2023-02-12T16:13:53.976Z,33.70
2023-02-12T16:16:26.272Z,34.15
2023-02-12T16:19:17.780Z,33.00
2023-02-12T16:21:46.404Z,33.28
2023-02-12T16:24:52.972Z,33.10
2023-02-12T16:27:24.581Z,35.17
2023-02-12T16:29:56.649Z,34.63
2023-02-12T16:32:34.713Z,33.78
2023-02-12T16:35:25.155Z,35.45
2023-02-12T16:38:04.015Z,34.50
2023-02-12T16:40:36.395Z,36.15
2023-02-12T16:43:24.091Z,37.40
2023-02-12T16:45:51.471Z,35.85
2023-02-12T16:48:24.540Z,40.05
2023-02-12T16:50:57.236Z,43.47
2023-02-12T16:53:29.814Z,46.38
2023-02-12T16:55:56.962Z,44.90
2023-02-12T16:58:25.828Z,46.13
2023-02-12T17:00:54.560Z,46.75
2023-02-12T17:03:21.518Z,43.88
2023-02-12T17:05:49.466Z,41.78
2023-02-12T17:08:18.936Z,36.40
2023-02-12T17:10:46.154Z,37.30
2023-02-12T17:13:12.690Z,35.28
2023-02-12T17:15:56.389Z,37.78
2023-02-12T17:18:23.904Z,37.85
2023-02-12T17:20:56.870Z,41.30
2023-02-12T17:23:24.055Z,40.92
2023-02-12T17:25:51.226Z,40.83
2023-02-12T17:28:17.888Z,40.33
2023-02-12T17:30:44.606Z,42.60
2023-02-12T17:33:11.685Z,41.47
2023-02-12T17:35:39.075Z,39.80
2023-02-12T17:38:06.275Z,42.83
2023-02-12T17:40:35.871Z,40.03
2023-02-12T17:43:03.631Z,39.88
2023-02-12T17:45:30.534Z,39.67
2023-02-12T17:47:57.404Z,41.58
2023-02-12T17:50:24.324Z,41.35
2023-02-12T17:52:51.337Z,46.33
2023-02-12T17:55:18.067Z,47.10
2023-02-12T17:57:44.603Z,50.78
2023-02-12T18:00:12.702Z,47.50
2023-02-12T18:02:39.380Z,49.58
2023-02-12T18:05:06.330Z,49.22
2023-02-12T18:07:34.512Z,51.60
2023-02-12T18:10:01.178Z,48.90
2023-02-12T18:12:27.696Z,50.50
2023-02-12T18:15:01.893Z,49.63
2023-02-12T18:17:29.044Z,49.67
2023-02-12T18:19:55.857Z,47.88
2023-02-12T18:22:23.725Z,46.60
2023-02-12T18:24:50.391Z,49.85
2023-02-12T18:27:18.608Z,51.30
2023-02-12T18:29:45.444Z,50.35
2023-02-12T18:32:15.938Z,47.45
2023-02-12T18:34:44.172Z,51.15
2023-02-12T18:37:12.812Z,54.42
2023-02-12T18:39:39.520Z,47.03
2023-02-12T18:42:06.238Z,41.70
2023-02-12T18:44:33.193Z,40.70
2023-02-12T18:47:00.124Z,39.90
2023-02-12T18:49:27.747Z,39.85
2023-02-12T18:51:54.797Z,40.40
2023-02-12T18:54:21.567Z,38.80
2023-02-12T18:56:51.712Z,41.20
2023-02-12T18:59:19.712Z,39.88
2023-02-12T19:01:47.456Z,36.75
2023-02-12T19:04:16.146Z,36.55
2023-02-12T19:06:45.878Z,36.22
2023-02-12T19:09:16.631Z,35.22
2023-02-12T19:11:46.634Z,35.75
2023-02-12T19:14:18.466Z,35.80
2023-02-12T19:16:46.249Z,36.90
2023-02-12T19:19:14.099Z,37.50
2023-02-12T19:21:41.211Z,35.17
2023-02-12T19:24:07.911Z,35.17
2023-02-12T19:26:35.906Z,38.50
2023-02-12T19:29:03.120Z,41.25
2023-02-12T19:31:38.719Z,45.83
2023-02-12T19:34:08.401Z,40.25
2023-02-12T19:36:36.649Z,40.33
2023-02-12T19:39:04.942Z,39.95
2023-02-12T19:41:32.965Z,42.83
2023-02-12T19:44:01.710Z,41.92
2023-02-12T19:46:30.980Z,43.50
2023-02-12T19:49:02.246Z,44.92
2023-02-12T19:51:30.103Z,40.05
2023-02-12T19:54:04.678Z,41.53
2023-02-12T19:56:31.531Z,43.22
2023-02-12T19:58:58.634Z,43.60
2023-02-12T20:01:25.721Z,44.47
2023-02-12T20:03:53.114Z,42.92
2023-02-12T20:06:23.258Z,39.88
2023-02-12T20:08:49.981Z,41.00
2023-02-12T20:11:19.701Z,36.88
2023-02-12T20:13:46.876Z,38.75
2023-02-12T20:16:16.764Z,41.30
2023-02-12T20:18:47.930Z,39.67
2023-02-12T20:21:17.877Z,38.35
2023-02-12T20:23:45.841Z,42.17
2023-02-12T20:26:14.465Z,40.53
2023-02-12T20:28:42.785Z,41.45
2023-02-12T20:31:13.723Z,43.15
2023-02-12T20:33:41.059Z,44.88
2023-02-12T20:36:09.117Z,44.65
2023-02-12T20:38:35.696Z,40.33
2023-02-12T20:41:03.589Z,42.90
2023-02-12T20:43:31.245Z,39.47
2023-02-12T20:46:04.909Z,41.55
2023-02-12T20:48:31.569Z,38.85
2023-02-12T20:51:06.411Z,42.47
2023-02-12T20:53:33.824Z,39.58
2023-02-12T20:56:02.317Z,38.78
2023-02-12T20:58:29.420Z,39.30
2023-02-12T21:01:02.354Z,35.92
2023-02-12T21:03:28.943Z,36.85
2023-02-12T21:05:55.777Z,41.08
2023-02-12T21:08:22.540Z,41.03
2023-02-12T21:10:49.114Z,39.47
2023-02-12T21:13:15.724Z,39.75
2023-02-12T21:15:42.416Z,38.33
2023-02-12T21:18:09.148Z,39.28
2023-02-12T21:20:36.285Z,40.30
2023-02-12T21:23:02.914Z,41.15
2023-02-12T21:25:29.448Z,41.88
2023-02-12T21:27:56.013Z,43.28
2023-02-12T21:30:23.999Z,43.83
2023-02-12T21:32:51.205Z,42.30
2023-02-12T21:35:17.771Z,46.85
2023-02-12T21:37:44.320Z,44.53
2023-02-12T21:40:11.181Z,47.30
2023-02-12T21:42:37.737Z,51.65
2023-02-12T21:45:06.270Z,48.10
2023-02-12T21:47:33.215Z,54.97
2023-02-12T21:49:59.981Z,50.55
2023-02-12T21:52:26.584Z,54.22
2023-02-12T21:54:55.542Z,55.35
2023-02-12T21:57:22.121Z,51.60
2023-02-12T21:59:48.694Z,58.70
2023-02-12T22:02:15.296Z,62.33
2023-02-12T22:04:42.086Z,63.80
2023-02-12T22:07:08.665Z,61.15
2023-02-12T22:09:35.274Z,64.13
2023-02-12T22:12:02.544Z,69.65
2023-02-12T22:14:29.318Z,68.80
2023-02-12T22:16:55.967Z,72.05
2023-02-12T22:19:22.607Z,74.30
2023-02-12T22:21:53.886Z,77.18
2023-02-12T22:24:21.189Z,148.98
2023-02-12T22:26:47.768Z,83.22
2023-02-12T22:29:15.667Z,82.57
2023-02-12T22:31:44.408Z,91.25
2023-02-12T22:34:14.569Z,86.10
2023-02-12T22:36:42.581Z,87.75
2023-02-12T22:39:12.983Z,87.32
2023-02-12T22:41:42.387Z,90.72
2023-02-12T22:44:11.307Z,136.15
2023-02-12T22:46:37.863Z,92.10
2023-02-12T22:49:04.524Z,95.13
2023-02-12T22:51:32.278Z,100.78
2023-02-12T22:53:59.080Z,99.97
2023-02-12T22:56:26.212Z,101.82
2023-02-12T22:59:01.108Z,95.57
2023-02-12T23:01:29.107Z,97.60
2023-02-12T23:03:55.973Z,106.40
2023-02-12T23:06:26.811Z,92.57
2023-02-12T23:08:55.818Z,89.30
2023-02-12T23:11:24.469Z,85.38
2023-02-12T23:13:52.139Z,86.40
2023-02-12T23:16:18.785Z,88.15
2023-02-12T23:18:45.392Z,84.20
2023-02-12T23:21:12.040Z,83.35
2023-02-12T23:23:38.616Z,82.38
2023-02-12T23:26:05.584Z,80.85
2023-02-12T23:28:32.446Z,102.00
2023-02-12T23:30:59.455Z,81.47
2023-02-12T23:33:27.049Z,84.88
2023-02-12T23:35:53.607Z,86.22
2023-02-12T23:38:20.185Z,93.60
2023-02-12T23:40:48.020Z,92.78
2023-02-12T23:43:14.786Z,88.05
2023-02-12T23:45:43.812Z,92.38
2023-02-12T23:48:11.822Z,80.25
2023-02-12T23:50:38.485Z,80.78
2023-02-12T23:53:05.168Z,78.20
2023-02-12T23:55:31.696Z,75.20
2023-02-12T23:57:58.272Z,76.75
